Terminal Aerodrome Forecast
Issued by NWS Billings, MT

Home | Current Version | Previous Version | Text Only | Print | Product List | Glossary On
Versions: 1 2 3 4 5 6 7 8 9 10 11 12 13 14 15 16 17 18 19 20 21 22 23 24 25 26 27 28 29 30 31 32
000
FTUS45 KBYZ 281856 AAA
TAFBIL
TAF AMD
KBIL 281856Z 2819/2918 33007KT P6SM VCTS FEW040CB BKN070 BKN200
      TEMPO 2819/2821 5SM -TSRA BKN035CB OVC050
     FM290000 36012KT P6SM VCTS SCT040CB BKN090
     FM290500 01008KT P6SM VCSH SCT025 BKN080
     FM291100 07007KT P6SM VCFG FEW015 BKN025=

USA.gov is the U.S. government's official web portal to all federal, state and local government web resources and services.